createdAt,value
2022-12-11T00:01:19.372Z,20.35
2022-12-11T00:03:47.506Z,18.40
2022-12-11T00:06:18.440Z,15.02
2022-12-11T00:08:47.300Z,17.25
2022-12-11T00:11:16.545Z,20.10
2022-12-11T00:13:44.557Z,20.10
2022-12-11T00:16:11.817Z,21.20
2022-12-11T00:18:39.229Z,19.73
2022-12-11T00:21:08.454Z,21.90
2022-12-11T00:23:36.220Z,20.88
2022-12-11T00:26:09.788Z,19.45
2022-12-11T00:28:37.304Z,15.07
2022-12-11T00:31:08.598Z,16.50
2022-12-11T00:33:36.271Z,13.98
2022-12-11T00:36:04.502Z,18.30
2022-12-11T00:38:31.419Z,23.42
2022-12-11T00:40:59.927Z,22.23
2022-12-11T00:43:27.444Z,22.05
2022-12-11T00:45:54.341Z,20.70
2022-12-11T00:48:21.331Z,15.38
2022-12-11T00:50:48.532Z,19.38
2022-12-11T00:53:15.477Z,22.67
2022-12-11T00:55:43.501Z,21.73
2022-12-11T00:58:11.971Z,22.80
2022-12-11T01:00:39.907Z,21.45
2022-12-11T01:03:07.555Z,24.25
2022-12-11T01:05:35.405Z,22.95
2022-12-11T01:08:02.774Z,21.50
2022-12-11T01:10:30.370Z,22.02
2022-12-11T01:13:03.927Z,20.42
2022-12-11T01:15:41.637Z,20.30
2022-12-11T01:18:10.306Z,21.33
2022-12-11T01:20:40.061Z,18.27
2022-12-11T01:23:06.980Z,20.33
2022-12-11T01:25:38.159Z,22.70
2022-12-11T01:28:07.277Z,18.08
2022-12-11T01:30:34.705Z,20.67
2022-12-11T01:33:02.611Z,20.73
2022-12-11T01:35:29.365Z,21.20
2022-12-11T01:37:59.896Z,17.50
2022-12-11T01:40:26.779Z,19.10
2022-12-11T01:42:53.641Z,17.92
2022-12-11T01:45:44.771Z,19.10
2022-12-11T01:48:21.350Z,15.13
2022-12-11T01:51:01.229Z,21.17
2022-12-11T01:53:34.320Z,20.58
2022-12-11T01:56:02.523Z,20.02
2022-12-11T01:58:47.836Z,18.33
2022-12-11T02:01:22.927Z,20.23
2022-12-11T02:03:50.828Z,19.45
2022-12-11T02:06:40.790Z,19.70
2022-12-11T02:09:16.151Z,19.98
2022-12-11T02:12:10.098Z,19.42
2022-12-11T02:14:48.602Z,18.90
2022-12-11T02:17:54.265Z,18.17
2022-12-11T02:20:30.395Z,20.23
2022-12-11T02:23:20.213Z,19.83
2022-12-11T02:26:14.196Z,20.23
2022-12-11T02:29:01.804Z,15.50
2022-12-11T02:32:13.420Z,17.55
2022-12-11T02:34:43.831Z,17.05
2022-12-11T02:37:17.712Z,19.95
2022-12-11T02:39:46.371Z,19.60
2022-12-11T02:42:16.515Z,20.65
2022-12-11T02:44:45.210Z,15.02
2022-12-11T02:47:15.267Z,18.45
2022-12-11T02:49:45.532Z,18.80
2022-12-11T02:52:16.753Z,18.60
2022-12-11T02:54:45.057Z,19.27
2022-12-11T02:57:16.752Z,17.50
2022-12-11T02:59:46.349Z,17.15
2022-12-11T03:02:14.578Z,19.58
2022-12-11T03:04:43.080Z,17.55
2022-12-11T03:07:17.723Z,18.15
2022-12-11T03:09:48.365Z,17.80
2022-12-11T03:12:20.244Z,18.70
2022-12-11T03:14:48.913Z,17.50
2022-12-11T03:17:20.008Z,16.67
2022-12-11T03:19:55.413Z,15.18
2022-12-11T03:22:36.528Z,15.70
2022-12-11T03:25:12.822Z,17.63
2022-12-11T03:27:50.619Z,17.95
2022-12-11T03:30:20.373Z,19.05
2022-12-11T03:33:01.373Z,18.20
2022-12-11T03:35:44.669Z,17.02
2022-12-11T03:38:24.301Z,13.75
2022-12-11T03:40:54.771Z,16.92
2022-12-11T03:43:23.017Z,17.02
2022-12-11T03:45:52.385Z,16.30
2022-12-11T03:48:20.915Z,15.18
2022-12-11T03:50:48.811Z,16.08
2022-12-11T03:53:16.781Z,13.77
2022-12-11T03:55:44.909Z,14.40
2022-12-11T03:58:11.798Z,16.52
2022-12-11T04:00:38.824Z,14.27
2022-12-11T04:03:15.784Z,16.23
2022-12-11T04:05:45.445Z,16.25
2022-12-11T04:08:12.896Z,13.82
2022-12-11T04:10:40.929Z,15.27
2022-12-11T04:13:08.982Z,13.68
2022-12-11T04:15:37.155Z,14.20
2022-12-11T04:18:23.044Z,13.98
2022-12-11T04:21:11.710Z,14.52
2022-12-11T04:24:14.389Z,14.50
2022-12-11T04:26:42.875Z,13.77
2022-12-11T04:29:09.803Z,10.73
2022-12-11T04:31:36.609Z,9.98
2022-12-11T04:34:03.762Z,15.77
2022-12-11T04:36:31.214Z,11.82
2022-12-11T04:38:58.439Z,11.95
2022-12-11T04:41:25.257Z,12.00
2022-12-11T04:43:53.292Z,12.43
2022-12-11T04:46:22.933Z,13.75
2022-12-11T04:48:56.735Z,14.00
2022-12-11T04:51:24.784Z,14.30
2022-12-11T04:53:51.826Z,10.27
2022-12-11T04:56:18.851Z,14.05
2022-12-11T04:58:46.376Z,14.70
2022-12-11T05:01:16.043Z,11.55
2022-12-11T05:03:43.259Z,13.95
2022-12-11T05:06:11.312Z,14.80
2022-12-11T05:08:40.785Z,15.13
2022-12-11T05:11:10.527Z,13.10
2022-12-11T05:13:38.224Z,12.48
2022-12-11T05:16:06.611Z,13.63
2022-12-11T05:18:33.717Z,13.65
2022-12-11T05:21:10.002Z,13.57
2022-12-11T05:23:36.947Z,13.20
2022-12-11T05:26:06.635Z,11.18
2022-12-11T05:28:36.882Z,10.63
2022-12-11T05:31:07.293Z,13.07
2022-12-11T05:33:34.600Z,12.35
2022-12-11T05:36:01.771Z,13.82
2022-12-11T05:38:28.612Z,13.85
2022-12-11T05:41:00.526Z,15.27
2022-12-11T05:43:29.461Z,14.70
2022-12-11T05:45:57.331Z,13.43
2022-12-11T05:48:24.143Z,14.82
2022-12-11T05:51:01.181Z,13.60
2022-12-11T05:53:28.332Z,13.13
2022-12-11T05:55:55.291Z,11.75
2022-12-11T05:58:22.093Z,13.95
2022-12-11T06:00:48.816Z,13.60
2022-12-11T06:03:15.727Z,14.32
2022-12-11T06:05:43.169Z,13.90
2022-12-11T06:08:10.501Z,14.43
2022-12-11T06:10:37.402Z,11.73
2022-12-11T06:13:04.288Z,12.80
2022-12-11T06:15:32.217Z,13.85
2022-12-11T06:17:58.992Z,13.90
2022-12-11T06:20:25.724Z,11.48
2022-12-11T06:22:52.563Z,14.10
2022-12-11T06:25:19.319Z,14.02
2022-12-11T06:27:46.142Z,12.30
2022-12-11T06:30:13.407Z,13.88
2022-12-11T06:32:40.217Z,12.48
2022-12-11T06:35:07.368Z,13.73
2022-12-11T06:37:35.959Z,15.15
2022-12-11T06:40:04.416Z,11.75
2022-12-11T06:42:31.696Z,13.27
2022-12-11T06:44:59.791Z,14.10
2022-12-11T06:47:27.500Z,13.98
2022-12-11T06:49:54.525Z,13.25
2022-12-11T06:52:25.449Z,13.93
2022-12-11T06:54:52.298Z,15.60
2022-12-11T06:57:19.679Z,11.68
2022-12-11T06:59:46.535Z,13.98
2022-12-11T07:02:14.874Z,12.70
2022-12-11T07:04:42.048Z,10.00
2022-12-11T07:07:09.986Z,11.52
2022-12-11T07:09:39.525Z,9.75
2022-12-11T07:12:07.340Z,11.55
2022-12-11T07:14:34.523Z,13.05
2022-12-11T07:17:01.360Z,12.68
2022-12-11T07:19:28.195Z,11.00
2022-12-11T07:21:55.127Z,11.60
2022-12-11T07:24:22.067Z,11.23
2022-12-11T07:26:49.007Z,13.07
2022-12-11T07:29:15.846Z,13.00
2022-12-11T07:31:42.716Z,12.65
2022-12-11T07:34:12.829Z,14.77
2022-12-11T07:36:39.860Z,13.95
2022-12-11T07:39:07.758Z,11.48
2022-12-11T07:41:34.658Z,13.50
2022-12-11T07:44:02.747Z,13.98
2022-12-11T07:46:31.853Z,13.07
2022-12-11T07:49:00.816Z,11.13
2022-12-11T07:51:33.601Z,12.05
2022-12-11T07:54:07.003Z,11.80
2022-12-11T07:56:34.589Z,13.65
2022-12-11T07:59:02.972Z,13.07
2022-12-11T08:01:32.333Z,13.77
2022-12-11T08:03:59.313Z,11.73
2022-12-11T08:06:28.598Z,13.48
2022-12-11T08:08:56.709Z,10.18
2022-12-11T08:11:24.227Z,10.77
2022-12-11T08:13:51.256Z,10.80
2022-12-11T08:16:19.042Z,12.75
2022-12-11T08:18:46.977Z,13.18
2022-12-11T08:21:18.005Z,14.40
2022-12-11T08:23:45.278Z,14.88
2022-12-11T08:26:15.814Z,14.43
2022-12-11T08:28:42.707Z,14.32
2022-12-11T08:31:11.292Z,15.13
2022-12-11T08:33:38.987Z,15.65
2022-12-11T08:36:08.008Z,15.30
2022-12-11T08:38:35.279Z,16.08
2022-12-11T08:41:16.722Z,15.88
2022-12-11T08:43:44.054Z,16.67
2022-12-11T08:46:12.423Z,15.55
2022-12-11T08:48:41.520Z,16.50
2022-12-11T08:51:12.728Z,15.52
2022-12-11T08:53:39.830Z,13.63
2022-12-11T08:56:12.753Z,16.20
2022-12-11T08:58:39.893Z,14.65
2022-12-11T09:01:09.130Z,15.07
2022-12-11T09:03:37.016Z,15.70
2022-12-11T09:06:08.448Z,14.52
2022-12-11T09:08:36.125Z,16.60
2022-12-11T09:11:05.143Z,16.52
2022-12-11T09:13:32.195Z,14.38
2022-12-11T09:15:59.673Z,16.38
2022-12-11T09:18:27.312Z,15.55
2022-12-11T09:21:13.429Z,16.10
2022-12-11T09:23:41.337Z,15.60
2022-12-11T09:26:11.259Z,15.88
2022-12-11T09:28:42.874Z,16.05
2022-12-11T09:31:18.751Z,11.98
2022-12-11T09:33:46.221Z,15.27
2022-12-11T09:36:13.597Z,15.93
2022-12-11T09:38:40.737Z,15.57
2022-12-11T09:41:22.568Z,15.68
2022-12-11T09:43:59.233Z,14.38
2022-12-11T09:46:33.603Z,14.65
2022-12-11T09:49:03.493Z,14.93
2022-12-11T09:51:37.384Z,14.68
2022-12-11T09:54:05.056Z,14.07
2022-12-11T09:56:42.469Z,11.70
2022-12-11T09:59:15.322Z,14.55
2022-12-11T10:01:42.110Z,13.77
2022-12-11T10:04:38.240Z,12.93
2022-12-11T10:07:15.339Z,11.25
2022-12-11T10:09:51.515Z,13.82
2022-12-11T10:12:29.914Z,13.27
2022-12-11T10:15:19.621Z,11.27
2022-12-11T10:17:47.204Z,12.23
2022-12-11T10:20:29.202Z,11.73
2022-12-11T10:22:58.164Z,9.63
2022-12-11T10:25:37.501Z,8.90
2022-12-11T10:28:30.744Z,9.65
2022-12-11T10:31:04.313Z,11.15
2022-12-11T10:33:56.711Z,10.85
2022-12-11T10:36:35.644Z,10.60
2022-12-11T10:39:03.565Z,10.98
2022-12-11T10:41:43.266Z,9.85
2022-12-11T10:44:26.667Z,13.15
2022-12-11T10:47:06.152Z,10.57
2022-12-11T10:49:35.946Z,10.38
2022-12-11T10:52:19.936Z,8.77
2022-12-11T10:54:53.407Z,7.55
2022-12-11T10:57:32.040Z,9.15
2022-12-11T11:00:00.096Z,10.98
2022-12-11T11:02:28.727Z,7.88
2022-12-11T11:04:57.868Z,10.48
2022-12-11T11:07:27.773Z,7.57
2022-12-11T11:10:16.606Z,9.52
2022-12-11T11:12:48.954Z,8.68
2022-12-11T11:15:18.198Z,11.48
2022-12-11T11:17:54.913Z,12.18
2022-12-11T11:20:29.200Z,12.65
2022-12-11T11:23:04.918Z,11.30
2022-12-11T11:25:33.423Z,12.23
2022-12-11T11:28:05.938Z,9.13
2022-12-11T11:30:39.402Z,11.35
2022-12-11T11:33:19.460Z,10.02
2022-12-11T11:36:29.003Z,10.95
2022-12-11T11:39:04.330Z,12.98
2022-12-11T11:41:51.946Z,12.65
2022-12-11T11:44:30.753Z,12.55
2022-12-11T11:47:01.358Z,10.10
2022-12-11T11:50:00.089Z,8.27
2022-12-11T11:52:48.244Z,12.00
2022-12-11T11:55:39.849Z,11.23
2022-12-11T11:58:19.341Z,12.30
2022-12-11T12:00:46.879Z,12.80
2022-12-11T12:03:17.240Z,12.73
2022-12-11T12:05:53.940Z,12.55
2022-12-11T12:09:05.344Z,11.35
2022-12-11T12:11:41.726Z,10.40
2022-12-11T12:14:51.792Z,10.57
2022-12-11T12:17:40.600Z,14.00
2022-12-11T12:20:32.551Z,14.75
2022-12-11T12:23:11.399Z,12.32
2022-12-11T12:25:41.132Z,14.27
2022-12-11T12:28:10.749Z,14.00
2022-12-11T12:30:49.817Z,14.63
2022-12-11T12:33:46.460Z,13.30
2022-12-11T12:36:42.539Z,14.32
2022-12-11T12:39:21.243Z,13.10
2022-12-11T12:41:53.873Z,12.50
2022-12-11T12:44:23.861Z,14.60
2022-12-11T12:47:02.367Z,11.45
2022-12-11T12:49:41.366Z,13.60
2022-12-11T12:52:18.359Z,15.52
2022-12-11T12:55:08.978Z,14.60
2022-12-11T12:57:38.191Z,14.30
2022-12-11T13:00:13.263Z,14.30
2022-12-11T13:02:50.904Z,15.07
2022-12-11T13:05:35.888Z,12.90
2022-12-11T13:08:05.650Z,15.50
2022-12-11T13:10:36.009Z,14.50
2022-12-11T13:13:05.087Z,14.23
2022-12-11T13:15:40.662Z,13.13
2022-12-11T13:18:32.539Z,15.48
2022-12-11T13:20:59.542Z,13.30
2022-12-11T13:23:29.506Z,13.02
2022-12-11T13:25:59.606Z,14.23
2022-12-11T13:28:26.385Z,13.98
2022-12-11T13:31:07.624Z,16.15
2022-12-11T13:33:41.510Z,12.57
2022-12-11T13:36:17.832Z,13.20
2022-12-11T13:39:36.794Z,16.20
2022-12-11T13:42:07.637Z,14.13
2022-12-11T13:44:44.088Z,11.63
2022-12-11T13:47:15.429Z,15.43
2022-12-11T13:49:44.853Z,13.70
2022-12-11T13:52:20.711Z,15.32
2022-12-11T13:54:53.487Z,14.35
2022-12-11T13:57:23.349Z,13.68
2022-12-11T13:59:56.504Z,13.27
2022-12-11T14:02:42.666Z,14.23
2022-12-11T14:05:12.780Z,15.77
2022-12-11T14:07:46.742Z,13.82
2022-12-11T14:10:16.357Z,13.68
2022-12-11T14:12:56.880Z,14.80
2022-12-11T14:15:24.129Z,13.25
2022-12-11T14:17:52.081Z,15.05
2022-12-11T14:20:25.547Z,12.27
2022-12-11T14:22:52.395Z,13.00
2022-12-11T14:25:25.097Z,12.27
2022-12-11T14:27:55.285Z,10.02
2022-12-11T14:30:29.036Z,14.05
2022-12-11T14:32:59.892Z,14.15
2022-12-11T14:35:38.854Z,11.93
2022-12-11T14:38:16.607Z,16.40
2022-12-11T14:40:46.965Z,13.35
2022-12-11T14:43:33.193Z,12.77
2022-12-11T14:46:08.460Z,14.77
2022-12-11T14:48:44.828Z,16.35
2022-12-11T14:51:16.011Z,18.27
2022-12-11T14:53:47.608Z,11.00
2022-12-11T14:56:24.391Z,15.38
2022-12-11T14:59:06.488Z,14.07
2022-12-11T15:01:35.325Z,15.38
2022-12-11T15:04:07.153Z,16.20
2022-12-11T15:06:42.577Z,15.68
2022-12-11T15:09:36.256Z,14.15
2022-12-11T15:12:18.619Z,15.18
2022-12-11T15:15:00.690Z,13.70
2022-12-11T15:17:30.903Z,15.95
2022-12-11T15:20:11.437Z,14.57
2022-12-11T15:22:43.266Z,12.25
2022-12-11T15:25:19.794Z,12.75
2022-12-11T15:27:51.697Z,14.23
2022-12-11T15:30:20.438Z,13.35
2022-12-11T15:32:47.459Z,13.88
2022-12-11T15:35:26.993Z,12.70
2022-12-11T15:37:55.932Z,11.95
2022-12-11T15:40:23.463Z,11.20
2022-12-11T15:42:50.899Z,15.55
2022-12-11T15:45:30.985Z,15.13
2022-12-11T15:47:59.418Z,8.77
2022-12-11T15:50:29.187Z,11.98
2022-12-11T15:52:56.935Z,11.88
2022-12-11T15:55:27.234Z,11.13
2022-12-11T15:57:57.346Z,12.57
2022-12-11T16:00:24.847Z,13.43
2022-12-11T16:02:52.198Z,12.38
2022-12-11T16:05:20.217Z,12.93
2022-12-11T16:07:47.753Z,13.70
2022-12-11T16:10:17.597Z,9.82
2022-12-11T16:12:45.446Z,12.10
2022-12-11T16:15:21.508Z,10.35
2022-12-11T16:17:59.495Z,10.60
2022-12-11T16:20:26.451Z,12.70
2022-12-11T16:22:53.229Z,12.82
2022-12-11T16:25:19.975Z,12.45
2022-12-11T16:27:47.038Z,15.02
2022-12-11T16:30:14.364Z,13.32
2022-12-11T16:32:41.418Z,10.50
2022-12-11T16:35:08.312Z,11.00
2022-12-11T16:37:35.372Z,13.43
2022-12-11T16:40:02.367Z,13.38
2022-12-11T16:42:30.540Z,9.13
2022-12-11T16:45:09.315Z,12.68
2022-12-11T16:47:40.932Z,12.35
2022-12-11T16:50:10.992Z,13.75
2022-12-11T16:52:38.118Z,13.77
2022-12-11T16:55:05.468Z,10.52
2022-12-11T16:57:32.507Z,13.88
2022-12-11T16:59:59.304Z,13.40
2022-12-11T17:02:26.230Z,11.82
2022-12-11T17:04:54.090Z,11.75
2022-12-11T17:07:21.063Z,12.95
2022-12-11T17:09:47.879Z,9.13
2022-12-11T17:12:14.817Z,11.43
2022-12-11T17:14:41.584Z,10.07
2022-12-11T17:17:09.376Z,12.43
2022-12-11T17:19:36.492Z,13.65
2022-12-11T17:22:04.499Z,10.20
2022-12-11T17:24:31.445Z,13.05
2022-12-11T17:26:59.645Z,12.00
2022-12-11T17:29:26.490Z,13.75
2022-12-11T17:31:53.378Z,10.90
2022-12-11T17:34:20.224Z,13.82
2022-12-11T17:36:47.313Z,11.98
2022-12-11T17:39:14.104Z,13.25
2022-12-11T17:41:41.000Z,13.18
2022-12-11T17:44:07.863Z,11.77
2022-12-11T17:46:34.878Z,12.45
2022-12-11T17:49:03.837Z,11.13
2022-12-11T17:51:30.699Z,12.63
2022-12-11T17:53:57.784Z,10.35
2022-12-11T17:56:25.289Z,11.45
2022-12-11T17:58:52.156Z,11.60
2022-12-11T18:01:19.675Z,11.90
2022-12-11T18:03:46.990Z,10.75
2022-12-11T18:06:15.689Z,13.43
2022-12-11T18:08:44.372Z,12.02
2022-12-11T18:11:19.509Z,12.57
2022-12-11T18:13:51.450Z,13.13
2022-12-11T18:16:24.972Z,11.43
2022-12-11T18:18:52.481Z,12.80
2022-12-11T18:21:22.588Z,11.95
2022-12-11T18:23:50.454Z,12.45
2022-12-11T18:26:19.404Z,12.55
2022-12-11T18:28:47.407Z,12.07
2022-12-11T18:31:14.806Z,13.07
2022-12-11T18:33:43.259Z,13.45
2022-12-11T18:36:11.500Z,12.88
2022-12-11T18:38:38.602Z,14.10
2022-12-11T18:41:07.288Z,14.02
2022-12-11T18:43:34.786Z,13.55
2022-12-11T18:46:09.103Z,13.10
2022-12-11T18:48:36.141Z,12.88
2022-12-11T18:51:08.431Z,12.75
2022-12-11T18:53:36.294Z,11.82
2022-12-11T18:56:13.776Z,12.52
2022-12-11T18:58:41.294Z,12.05
2022-12-11T19:01:20.928Z,13.23
2022-12-11T19:03:48.631Z,13.55
2022-12-11T19:06:21.907Z,13.50
2022-12-11T19:08:48.926Z,13.27
2022-12-11T19:11:22.482Z,13.02
2022-12-11T19:13:49.830Z,13.30
2022-12-11T19:16:29.887Z,13.52
2022-12-11T19:19:02.988Z,13.65
2022-12-11T19:21:30.710Z,14.07
2022-12-11T19:23:57.719Z,12.60
2022-12-11T19:26:24.746Z,12.13
2022-12-11T19:28:52.782Z,13.23
2022-12-11T19:31:23.397Z,12.98
2022-12-11T19:33:50.408Z,13.88
2022-12-11T19:36:20.880Z,13.90
2022-12-11T19:38:48.560Z,12.90
2022-12-11T19:41:23.635Z,15.18
2022-12-11T19:43:51.249Z,14.50
2022-12-11T19:46:18.270Z,13.70
2022-12-11T19:48:47.743Z,12.70
2022-12-11T19:51:18.698Z,13.40
2022-12-11T19:53:47.848Z,13.35
2022-12-11T19:56:15.570Z,13.48
2022-12-11T19:58:42.977Z,11.25
2022-12-11T20:01:10.300Z,12.25
2022-12-11T20:03:37.987Z,11.80
2022-12-11T20:06:08.014Z,12.77
2022-12-11T20:08:44.906Z,10.57
2022-12-11T20:11:17.816Z,10.32
2022-12-11T20:13:46.693Z,12.25
2022-12-11T20:16:14.409Z,12.80
2022-12-11T20:18:41.690Z,12.57
2022-12-11T20:21:14.888Z,11.05
2022-12-11T20:23:42.612Z,13.70
2022-12-11T20:26:16.304Z,13.55
2022-12-11T20:28:44.860Z,13.85
2022-12-11T20:31:19.701Z,12.65
2022-12-11T20:33:49.432Z,13.35
2022-12-11T20:36:18.098Z,15.02
2022-12-11T20:38:45.245Z,13.65
2022-12-11T20:41:13.845Z,13.88
2022-12-11T20:43:40.987Z,13.80
2022-12-11T20:46:09.777Z,13.65
2022-12-11T20:48:38.937Z,12.43
2022-12-11T20:51:07.825Z,12.65
2022-12-11T20:53:35.856Z,12.65
2022-12-11T20:56:08.899Z,13.00
2022-12-11T20:58:36.111Z,12.45
2022-12-11T21:01:02.953Z,13.07
2022-12-11T21:03:33.159Z,12.75
2022-12-11T21:06:02.230Z,12.15
2022-12-11T21:08:29.170Z,12.70
2022-12-11T21:10:56.189Z,12.40
2022-12-11T21:13:23.472Z,12.40
2022-12-11T21:15:52.613Z,12.57
2022-12-11T21:18:20.944Z,12.73
2022-12-11T21:20:47.758Z,12.63
2022-12-11T21:23:14.556Z,13.35
2022-12-11T21:25:41.500Z,12.60
2022-12-11T21:28:08.342Z,13.38
2022-12-11T21:30:40.104Z,13.23
2022-12-11T21:33:07.286Z,12.35
2022-12-11T21:35:34.128Z,12.85
2022-12-11T21:38:01.076Z,12.65
2022-12-11T21:40:28.225Z,12.77
2022-12-11T21:42:55.482Z,12.50
2022-12-11T21:46:00.298Z,13.25
2022-12-11T21:48:10.956Z,12.63
2022-12-11T21:50:37.805Z,12.98
2022-12-11T21:53:04.796Z,11.95
2022-12-11T21:55:31.685Z,12.13
2022-12-11T21:57:58.567Z,12.50
2022-12-11T22:00:25.480Z,12.65
2022-12-11T22:02:52.341Z,12.07
2022-12-11T22:05:19.169Z,12.40
2022-12-11T22:07:46.088Z,12.80
2022-12-11T22:10:13.033Z,13.02
2022-12-11T22:12:39.947Z,10.95
2022-12-11T22:15:07.653Z,12.55
2022-12-11T22:17:36.279Z,12.05
2022-12-11T22:20:05.299Z,11.18
2022-12-11T22:22:32.171Z,12.23
2022-12-11T22:24:59.170Z,12.20
2022-12-11T22:27:26.131Z,10.85
2022-12-11T22:29:54.232Z,12.85
2022-12-11T22:32:20.997Z,13.13
2022-12-11T22:34:47.739Z,12.65
2022-12-11T22:37:14.586Z,12.45
2022-12-11T22:39:41.428Z,11.35
2022-12-11T22:42:08.271Z,11.43
2022-12-11T22:44:35.255Z,12.50
2022-12-11T22:47:02.017Z,13.00
2022-12-11T22:49:28.799Z,13.27
2022-12-11T22:51:57.325Z,13.15
2022-12-11T22:54:24.860Z,13.15
2022-12-11T22:56:51.698Z,12.63
2022-12-11T22:59:18.503Z,13.57
2022-12-11T23:01:45.441Z,11.18
2022-12-11T23:04:12.377Z,13.02
2022-12-11T23:06:39.203Z,13.05
2022-12-11T23:09:06.019Z,12.95
2022-12-11T23:11:36.718Z,13.00
2022-12-11T23:14:08.699Z,13.80
2022-12-11T23:16:35.651Z,13.05
2022-12-11T23:19:02.702Z,13.85
2022-12-11T23:21:29.862Z,12.65
2022-12-11T23:23:58.418Z,13.43
2022-12-11T23:26:27.297Z,14.25
2022-12-11T23:28:55.804Z,14.02
2022-12-11T23:31:23.925Z,13.35
2022-12-11T23:33:51.516Z,13.65
2022-12-11T23:36:18.847Z,14.23
2022-12-11T23:38:50.921Z,13.13
2022-12-11T23:41:22.013Z,13.88
2022-12-11T23:43:48.913Z,14.18
2022-12-11T23:46:21.580Z,14.13
2022-12-11T23:48:49.340Z,13.38
2022-12-11T23:51:18.225Z,13.60
2022-12-11T23:53:45.372Z,13.98
2022-12-11T23:56:19.344Z,13.73
2022-12-11T23:58:46.315Z,14.10
